createdAt,value
2022-10-02T00:02:41.574Z,8.50
2022-10-02T00:07:53.487Z,10.20
2022-10-02T00:12:59.800Z,10.60
2022-10-02T00:18:11.763Z,10.40
2022-10-02T00:23:31.504Z,12.10
2022-10-02T00:29:10.512Z,12.10
2022-10-02T00:34:33.691Z,12.20
2022-10-02T00:39:45.571Z,9.80
2022-10-02T00:45:24.241Z,12.30
2022-10-02T00:50:44.727Z,14.00
2022-10-02T00:56:21.515Z,13.70
2022-10-02T01:01:32.698Z,15.80
2022-10-02T01:11:36.403Z,13.40
2022-10-02T01:16:39.151Z,13.70
2022-10-02T01:21:50.734Z,16.00
2022-10-02T01:31:53.722Z,14.20
2022-10-02T01:36:55.266Z,13.80
2022-10-02T01:52:57.482Z,18.60
2022-10-02T01:58:36.238Z,14.50
2022-10-02T02:03:56.199Z,14.00
2022-10-02T02:09:05.314Z,12.50
2022-10-02T02:14:15.198Z,11.50
2022-10-02T02:19:34.815Z,11.30
2022-10-02T02:24:44.503Z,12.30
2022-10-02T02:29:49.475Z,11.80
2022-10-02T02:34:57.248Z,12.40
2022-10-02T02:40:04.081Z,11.30
2022-10-02T02:45:18.067Z,12.10
2022-10-02T02:50:32.471Z,12.70
2022-10-02T02:55:58.015Z,11.20
2022-10-02T03:00:59.090Z,10.00
2022-10-02T03:11:52.954Z,13.80
2022-10-02T03:17:15.674Z,12.10
2022-10-02T03:22:43.609Z,11.30
2022-10-02T03:27:52.980Z,7.60
2022-10-02T03:32:56.555Z,9.20
2022-10-02T03:38:07.102Z,10.40
2022-10-02T03:43:17.386Z,12.40
2022-10-02T03:48:18.509Z,11.30
2022-10-02T03:58:25.655Z,12.00
2022-10-02T04:03:32.079Z,10.00
2022-10-02T04:08:41.665Z,12.40
2022-10-02T04:14:09.422Z,8.70
2022-10-02T04:19:21.852Z,10.90
2022-10-02T04:24:32.928Z,7.50
2022-10-02T04:34:41.999Z,10.90
2022-10-02T04:40:06.510Z,9.50
2022-10-02T04:45:33.718Z,9.60
2022-10-02T04:50:41.329Z,10.70
2022-10-02T04:56:16.217Z,8.10
2022-10-02T05:01:25.992Z,10.70
2022-10-02T05:07:05.319Z,8.50
2022-10-02T05:12:16.026Z,7.80
2022-10-02T05:17:44.440Z,7.80
2022-10-02T05:23:00.526Z,8.40
2022-10-02T05:28:20.958Z,8.60
2022-10-02T05:33:31.058Z,9.60
2022-10-02T05:38:56.776Z,9.90
2022-10-02T05:44:05.594Z,8.20
2022-10-02T05:49:34.341Z,8.50
2022-10-02T05:54:48.857Z,6.70
2022-10-02T06:00:15.332Z,6.10
2022-10-02T06:05:23.085Z,5.70
2022-10-02T06:10:34.784Z,6.00
2022-10-02T06:16:13.610Z,9.50
2022-10-02T06:21:41.001Z,5.10
2022-10-02T06:26:46.889Z,5.00
2022-10-02T06:32:01.772Z,5.50
2022-10-02T06:37:17.680Z,8.80
2022-10-02T06:42:56.389Z,6.70
2022-10-02T06:48:24.900Z,7.00
2022-10-02T06:53:45.317Z,6.70
2022-10-02T06:59:05.922Z,6.40
2022-10-02T07:04:25.799Z,6.70
2022-10-02T07:09:45.734Z,8.30
2022-10-02T07:15:25.319Z,6.10
2022-10-02T07:21:03.765Z,6.40
2022-10-02T07:26:24.915Z,6.30
2022-10-02T07:32:03.652Z,9.30
2022-10-02T07:37:43.335Z,7.30
2022-10-02T07:43:09.498Z,8.70
2022-10-02T07:48:41.153Z,8.80
2022-10-02T07:53:56.100Z,6.30
2022-10-02T07:59:06.515Z,12.00
2022-10-02T08:04:37.108Z,6.50
2022-10-02T08:09:48.165Z,8.60
2022-10-02T08:14:54.853Z,8.60
2022-10-02T08:20:29.380Z,6.50
2022-10-02T08:25:40.426Z,9.00
2022-10-02T08:30:42.110Z,7.40
2022-10-02T08:36:20.941Z,8.50
2022-10-02T08:41:36.027Z,8.80
2022-10-02T08:47:10.306Z,7.20
2022-10-02T08:52:36.522Z,8.50
2022-10-02T08:58:14.821Z,9.20
2022-10-02T09:03:32.728Z,9.20
2022-10-02T09:09:12.072Z,6.00
2022-10-02T09:14:38.047Z,8.20
2022-10-02T09:19:59.297Z,10.50
2022-10-02T09:25:37.903Z,8.30
2022-10-02T09:31:18.485Z,7.80
2022-10-02T09:36:45.152Z,9.10
2022-10-02T09:42:08.180Z,7.20
2022-10-02T09:47:18.260Z,6.70
2022-10-02T09:52:58.649Z,6.90
2022-10-02T09:58:18.326Z,10.80
2022-10-02T10:03:28.626Z,8.10
2022-10-02T10:09:08.079Z,6.90
2022-10-02T10:14:43.344Z,6.10
2022-10-02T10:20:22.406Z,8.10
2022-10-02T10:25:35.137Z,8.80
2022-10-02T10:31:01.417Z,6.60
2022-10-02T10:36:52.947Z,8.90
2022-10-02T10:42:06.971Z,7.90
2022-10-02T10:47:28.579Z,6.50
2022-10-02T10:52:44.944Z,5.80
2022-10-02T10:58:20.456Z,5.50
2022-10-02T11:03:44.206Z,7.40
2022-10-02T11:09:12.944Z,8.70
2022-10-02T11:14:51.802Z,5.20
2022-10-02T11:20:18.361Z,6.70
2022-10-02T11:25:57.245Z,6.70
2022-10-02T11:31:36.718Z,7.70
2022-10-02T11:36:43.716Z,4.00
2022-10-02T11:42:05.079Z,6.10
2022-10-02T11:47:08.862Z,6.00
2022-10-02T11:52:17.414Z,3.50
2022-10-02T11:57:56.399Z,6.90
2022-10-02T12:03:23.731Z,6.50
2022-10-02T12:08:46.279Z,7.40
2022-10-02T12:14:26.624Z,4.90
2022-10-02T12:20:16.970Z,6.60
2022-10-02T12:25:50.657Z,5.80
2022-10-02T12:31:04.494Z,7.10
2022-10-02T12:36:37.380Z,9.30
2022-10-02T12:42:16.472Z,7.10
2022-10-02T12:47:50.995Z,9.90
2022-10-02T12:53:11.159Z,5.20
2022-10-02T12:58:37.261Z,3.90
2022-10-02T13:04:12.607Z,4.50
2022-10-02T13:09:33.693Z,5.70
2022-10-02T13:15:02.235Z,5.10
2022-10-02T13:20:09.954Z,6.10
2022-10-02T13:25:33.648Z,4.20
2022-10-02T13:30:52.310Z,5.40
2022-10-02T13:36:00.850Z,6.90
2022-10-02T13:41:40.115Z,5.70
2022-10-02T13:47:00.266Z,5.20
2022-10-02T13:52:39.169Z,5.60
2022-10-02T13:57:51.838Z,6.40
2022-10-02T14:03:05.812Z,4.00
2022-10-02T14:08:35.040Z,5.20
2022-10-02T14:14:03.038Z,2.50
2022-10-02T14:19:24.664Z,2.50
2022-10-02T14:24:56.603Z,3.10
2022-10-02T14:30:16.577Z,3.00
2022-10-02T14:35:45.798Z,2.30
2022-10-02T14:40:55.055Z,1.80
2022-10-02T14:46:21.089Z,2.20
2022-10-02T14:51:55.843Z,2.00
2022-10-02T14:56:59.369Z,5.40
2022-10-02T15:02:08.860Z,2.90
2022-10-02T15:07:13.305Z,3.00
2022-10-02T15:12:21.597Z,1.80
2022-10-02T15:17:57.656Z,2.90
2022-10-02T15:23:06.567Z,4.50
2022-10-02T15:28:45.207Z,2.40
2022-10-02T15:34:25.539Z,2.30
2022-10-02T15:40:08.074Z,1.70
2022-10-02T15:45:32.622Z,2.60
2022-10-02T15:50:46.302Z,4.00
2022-10-02T15:56:25.540Z,5.50
2022-10-02T16:01:39.105Z,3.30
2022-10-02T16:06:52.849Z,4.00
2022-10-02T16:12:03.229Z,10.90
2022-10-02T16:17:31.796Z,7.00
2022-10-02T16:22:48.031Z,7.30
2022-10-02T16:28:26.905Z,8.80
2022-10-02T16:33:42.671Z,5.50
2022-10-02T16:38:55.414Z,6.50
2022-10-02T16:44:15.382Z,7.80
2022-10-02T16:49:56.254Z,5.00
2022-10-02T16:55:31.996Z,7.60
2022-10-02T17:00:40.235Z,7.80
2022-10-02T17:06:07.664Z,10.30
2022-10-02T17:11:19.233Z,9.30
2022-10-02T17:16:32.186Z,6.80
2022-10-02T17:21:36.366Z,20.00
2022-10-02T17:26:46.735Z,38.30
2022-10-02T17:31:53.302Z,7.20
2022-10-02T17:37:20.169Z,5.10
2022-10-02T17:42:43.060Z,8.90
2022-10-02T17:48:20.902Z,5.30
2022-10-02T17:53:59.739Z,8.50
2022-10-02T17:59:19.268Z,11.90
2022-10-02T18:04:58.550Z,9.20
2022-10-02T18:10:27.949Z,7.50
2022-10-02T18:16:06.723Z,7.80
2022-10-02T18:21:26.649Z,7.10
2022-10-02T18:27:05.764Z,5.80
2022-10-02T18:32:30.950Z,7.60
2022-10-02T18:37:44.648Z,6.80
2022-10-02T18:43:23.358Z,7.80
2022-10-02T18:49:02.056Z,6.20
2022-10-02T18:54:22.499Z,7.10
2022-10-02T19:00:01.281Z,5.70
2022-10-02T19:05:09.418Z,6.60
2022-10-02T19:10:29.714Z,5.60
2022-10-02T19:15:32.208Z,6.30
2022-10-02T19:20:53.981Z,6.10
2022-10-02T19:26:00.374Z,7.30
2022-10-02T19:31:05.732Z,7.50
2022-10-02T19:36:15.049Z,13.70
2022-10-02T19:41:17.918Z,9.20
2022-10-02T19:46:28.485Z,7.10
2022-10-02T19:51:41.638Z,8.20
2022-10-02T19:56:44.540Z,6.40
2022-10-02T20:01:53.683Z,7.40
2022-10-02T20:06:57.274Z,8.70
2022-10-02T20:12:18.535Z,8.80
2022-10-02T20:17:20.224Z,6.90
2022-10-02T20:22:39.846Z,9.40
2022-10-02T20:27:53.583Z,7.20
2022-10-02T20:33:07.854Z,5.10
2022-10-02T20:38:24.708Z,6.30
2022-10-02T20:43:35.316Z,5.90
2022-10-02T20:49:13.783Z,8.40
2022-10-02T20:54:37.554Z,8.90
2022-10-02T21:00:16.638Z,7.90
2022-10-02T21:05:36.659Z,8.50
2022-10-02T21:11:04.509Z,12.10
2022-10-02T21:16:14.023Z,9.50
2022-10-02T21:21:35.308Z,9.20
2022-10-02T21:32:23.934Z,10.10
2022-10-02T21:37:54.816Z,9.90
2022-10-02T21:43:10.246Z,10.00
2022-10-02T21:48:48.991Z,7.90
2022-10-02T21:54:09.225Z,11.90
2022-10-02T21:59:41.214Z,9.80
2022-10-02T22:05:04.199Z,6.20
2022-10-02T22:10:10.209Z,9.10
2022-10-02T22:15:23.017Z,8.90
2022-10-02T22:20:38.817Z,9.20
2022-10-02T22:25:45.817Z,8.50
2022-10-02T22:31:23.250Z,6.30
2022-10-02T22:36:47.667Z,7.00
2022-10-02T22:41:51.934Z,6.30
2022-10-02T22:47:05.029Z,9.00
2022-10-02T22:52:07.162Z,6.10
2022-10-02T22:57:37.451Z,5.70
2022-10-02T23:03:12.534Z,7.10
2022-10-02T23:08:37.585Z,6.70
2022-10-02T23:13:55.889Z,7.00
2022-10-02T23:19:26.243Z,8.20
2022-10-02T23:24:33.804Z,4.00
2022-10-02T23:29:53.259Z,5.60
2022-10-02T23:35:13.186Z,5.10
2022-10-02T23:41:12.140Z,7.10
2022-10-02T23:46:19.244Z,6.00
2022-10-02T23:51:57.589Z,8.60
2022-10-02T23:57:11.935Z,7.20
